createdAt,value
2018-08-07T00:01:55.082Z,11.30
2018-08-07T00:06:57.278Z,10.30
2018-08-07T00:11:59.417Z,11.03
2018-08-07T00:17:01.606Z,15.37
2018-08-07T00:22:03.936Z,12.20
2018-08-07T00:27:06.117Z,13.83
2018-08-07T00:32:08.494Z,13.50
2018-08-07T00:37:10.680Z,16.40
2018-08-07T00:42:12.874Z,11.60
2018-08-07T00:47:15.029Z,13.07
2018-08-07T00:52:17.202Z,15.90
2018-08-07T00:57:19.514Z,13.40
2018-08-07T01:02:21.730Z,13.30
2018-08-07T01:07:23.963Z,14.60
2018-08-07T01:12:26.157Z,11.90
2018-08-07T01:17:28.378Z,10.50
2018-08-07T01:22:30.581Z,15.37
2018-08-07T01:27:32.813Z,12.77
2018-08-07T01:32:35.353Z,13.27
2018-08-07T01:37:38.151Z,14.70
2018-08-07T01:42:40.843Z,15.27
2018-08-07T01:47:43.054Z,13.53
2018-08-07T01:52:45.281Z,13.40
2018-08-07T01:57:47.488Z,12.33
2018-08-07T02:02:50.106Z,11.60
2018-08-07T02:07:52.292Z,14.70
2018-08-07T02:12:54.453Z,11.60
2018-08-07T02:17:56.631Z,12.50
2018-08-07T02:22:58.810Z,12.07
2018-08-07T02:28:00.982Z,14.00
2018-08-07T02:33:03.171Z,12.13
2018-08-07T02:38:05.362Z,10.83
2018-08-07T02:43:07.841Z,12.40
2018-08-07T02:48:09.978Z,14.50
2018-08-07T02:53:12.181Z,18.73
2018-08-07T02:58:14.341Z,11.63
2018-08-07T03:03:16.502Z,19.23
2018-08-07T03:08:18.681Z,10.40
2018-08-07T03:13:20.892Z,13.87
2018-08-07T03:18:23.078Z,14.90
2018-08-07T03:23:25.257Z,11.77
2018-08-07T03:33:36.401Z,13.93
2018-08-07T03:38:38.597Z,11.40
2018-08-07T03:43:40.794Z,10.90
2018-08-07T03:48:42.994Z,11.30
2018-08-07T03:53:45.187Z,12.00
2018-08-07T03:58:47.364Z,10.87
2018-08-07T04:03:49.555Z,12.93
2018-08-07T04:08:51.710Z,13.03
2018-08-07T04:13:53.878Z,14.07
2018-08-07T04:18:56.048Z,12.47
2018-08-07T04:23:58.206Z,12.17
2018-08-07T04:29:00.370Z,13.77
2018-08-07T04:34:02.517Z,18.10
2018-08-07T04:39:07.317Z,16.10
2018-08-07T04:44:09.650Z,15.03
2018-08-07T04:49:11.828Z,12.77
2018-08-07T04:54:14.000Z,18.07
2018-08-07T04:59:16.140Z,13.70
2018-08-07T05:04:18.332Z,11.57
2018-08-07T05:09:20.499Z,14.03
2018-08-07T05:14:22.658Z,18.13
2018-08-07T05:19:24.815Z,14.30
2018-08-07T05:24:27.008Z,13.03
2018-08-07T05:29:29.158Z,11.73
2018-08-07T05:34:31.382Z,21.33
2018-08-07T05:39:33.623Z,20.03
2018-08-07T05:44:35.813Z,14.63
2018-08-07T05:49:37.969Z,13.70
2018-08-07T05:54:40.142Z,36.90
2018-08-07T05:59:42.309Z,14.70
2018-08-07T06:04:44.453Z,13.63
2018-08-07T06:09:46.663Z,12.80
2018-08-07T06:14:48.873Z,12.80
2018-08-07T06:19:51.053Z,13.23
2018-08-07T06:24:53.260Z,11.30
2018-08-07T06:29:55.457Z,8.93
2018-08-07T06:34:57.641Z,10.80
2018-08-07T06:39:59.824Z,10.73
2018-08-07T06:45:02.074Z,10.27
2018-08-07T06:50:07.749Z,9.17
2018-08-07T06:55:10.557Z,13.43
2018-08-07T07:00:22.857Z,12.33
2018-08-07T07:05:25.057Z,11.47
2018-08-07T07:10:27.203Z,18.10
2018-08-07T07:15:29.379Z,10.90
2018-08-07T07:20:31.522Z,12.73
2018-08-07T07:25:33.665Z,10.07
2018-08-07T07:30:35.834Z,10.33
2018-08-07T07:35:38.025Z,16.27
2018-08-07T07:40:40.226Z,18.50
2018-08-07T07:45:42.380Z,11.67
2018-08-07T07:50:44.557Z,17.47
2018-08-07T07:55:46.760Z,16.60
2018-08-07T08:00:48.941Z,11.50
2018-08-07T08:05:51.129Z,11.00
2018-08-07T08:10:53.418Z,11.53
2018-08-07T08:15:55.595Z,13.60
2018-08-07T08:20:57.783Z,11.80
2018-08-07T08:25:59.950Z,12.27
2018-08-07T08:31:02.116Z,15.70
2018-08-07T08:36:04.297Z,21.73
2018-08-07T08:41:06.445Z,19.60
2018-08-07T08:46:08.657Z,12.10
2018-08-07T08:51:10.893Z,11.80
2018-08-07T08:56:13.053Z,16.37
2018-08-07T09:01:15.241Z,14.73
2018-08-07T09:06:17.415Z,14.87
2018-08-07T09:11:19.625Z,10.87
2018-08-07T09:16:21.786Z,16.53
2018-08-07T09:21:23.913Z,11.13
2018-08-07T09:26:26.129Z,10.10
2018-08-07T09:31:28.413Z,11.17
2018-08-07T09:36:30.589Z,10.20
2018-08-07T09:41:32.881Z,11.77
2018-08-07T09:46:35.101Z,10.73
2018-08-07T09:51:38.015Z,22.00
2018-08-07T09:57:13.105Z,14.50
2018-08-07T10:02:49.593Z,10.20
2018-08-07T10:07:51.745Z,10.50
2018-08-07T10:12:53.889Z,12.87
2018-08-07T10:17:56.098Z,11.17
2018-08-07T10:22:58.274Z,9.70
2018-08-07T10:28:00.409Z,9.27
2018-08-07T10:33:02.617Z,11.10
2018-08-07T10:38:04.791Z,10.10
2018-08-07T10:43:07.094Z,13.47
2018-08-07T10:48:09.173Z,9.37
2018-08-07T10:53:11.312Z,10.07
2018-08-07T10:58:13.496Z,10.53
2018-08-07T11:03:15.717Z,9.53
2018-08-07T11:08:17.910Z,15.47
2018-08-07T11:13:20.112Z,9.47
2018-08-07T11:18:22.281Z,9.90
2018-08-07T11:23:24.475Z,9.50
2018-08-07T11:28:26.642Z,8.83
2018-08-07T11:33:28.825Z,9.10
2018-08-07T11:38:31.046Z,12.40
2018-08-07T11:43:33.226Z,8.83
2018-08-07T11:48:35.420Z,8.90
2018-08-07T11:53:37.584Z,8.60
2018-08-07T11:58:39.753Z,10.80
2018-08-07T12:03:41.909Z,8.70
2018-08-07T12:08:44.082Z,9.47
2018-08-07T12:13:46.230Z,13.57
2018-08-07T12:18:48.378Z,10.03
2018-08-07T12:23:50.528Z,10.13
2018-08-07T12:28:52.692Z,11.37
2018-08-07T12:33:54.846Z,9.93
2018-08-07T12:38:56.997Z,9.90
2018-08-07T12:43:59.160Z,10.77
2018-08-07T12:49:01.297Z,15.10
2018-08-07T12:54:03.445Z,16.07
2018-08-07T12:59:05.641Z,9.43
2018-08-07T13:04:08.048Z,15.33
2018-08-07T13:09:11.852Z,18.27
2018-08-07T13:14:14.066Z,17.37
2018-08-07T13:19:16.242Z,18.30
2018-08-07T13:24:18.412Z,30.73
2018-08-07T13:29:20.577Z,34.77
2018-08-07T13:34:22.738Z,19.80
2018-08-07T13:39:25.019Z,14.27
2018-08-07T13:44:27.214Z,13.23
2018-08-07T13:49:29.405Z,25.27
2018-08-07T13:54:31.597Z,9.80
2018-08-07T13:59:33.810Z,10.60
2018-08-07T14:04:36.005Z,11.13
2018-08-07T14:09:38.201Z,10.23
2018-08-07T14:14:40.405Z,14.03
2018-08-07T14:19:42.549Z,12.70
2018-08-07T14:24:44.841Z,34.77
2018-08-07T14:29:47.064Z,49.93
2018-08-07T14:34:49.241Z,38.23
2018-08-07T14:39:51.437Z,24.73
2018-08-07T14:44:53.593Z,33.60
2018-08-07T14:49:55.793Z,51.37
2018-08-07T14:54:57.987Z,41.60
2018-08-07T15:00:00.226Z,43.10
2018-08-07T15:05:02.422Z,27.73
2018-08-07T15:10:06.854Z,43.53
2018-08-07T15:15:13.045Z,34.20
2018-08-07T15:20:16.965Z,28.57
2018-08-07T15:25:19.879Z,35.90
2018-08-07T15:30:23.329Z,35.27
2018-08-07T15:35:26.961Z,32.73
2018-08-07T15:40:29.146Z,33.10
2018-08-07T15:45:31.371Z,42.03
2018-08-07T15:50:33.495Z,33.43
2018-08-07T15:55:35.705Z,39.17
2018-08-07T16:00:37.913Z,32.03
2018-08-07T16:05:40.219Z,28.40
2018-08-07T16:10:42.405Z,31.00
2018-08-07T16:15:44.617Z,32.20
2018-08-07T16:20:46.837Z,23.23
2018-08-07T16:25:49.001Z,18.60
2018-08-07T16:30:51.190Z,15.07
2018-08-07T16:35:53.373Z,14.00
2018-08-07T16:40:55.588Z,10.20
2018-08-07T16:45:57.774Z,10.07
2018-08-07T16:50:59.949Z,10.37
2018-08-07T16:56:02.142Z,10.00
2018-08-07T17:01:04.449Z,11.47
2018-08-07T17:06:06.645Z,14.20
2018-08-07T17:11:08.861Z,42.87
2018-08-07T17:16:11.074Z,8.30
2018-08-07T17:21:13.237Z,6.77
2018-08-07T17:26:15.509Z,7.30
2018-08-07T17:31:17.801Z,6.00
2018-08-07T17:36:19.978Z,5.97
2018-08-07T17:41:22.153Z,6.90
2018-08-07T17:46:24.370Z,6.70
2018-08-07T17:51:26.628Z,4.53
2018-08-07T17:56:28.801Z,5.70
2018-08-07T18:01:31.053Z,5.00
2018-08-07T18:06:33.257Z,6.83
2018-08-07T18:11:35.891Z,5.70
2018-08-07T18:16:38.077Z,8.20
2018-08-07T18:21:40.261Z,5.60
2018-08-07T18:26:42.481Z,5.40
2018-08-07T18:31:44.669Z,10.43
2018-08-07T18:36:46.966Z,6.30
2018-08-07T18:41:49.137Z,7.40
2018-08-07T18:46:51.289Z,6.77
2018-08-07T18:51:53.500Z,12.57
2018-08-07T18:56:55.822Z,6.97
2018-08-07T19:01:57.998Z,10.90
2018-08-07T19:07:00.168Z,7.20
2018-08-07T19:12:02.361Z,8.10
2018-08-07T19:17:04.657Z,9.63
2018-08-07T19:22:06.880Z,9.10
2018-08-07T19:27:09.043Z,7.13
2018-08-07T19:32:11.304Z,10.33
2018-08-07T19:37:13.469Z,6.90
2018-08-07T19:42:15.665Z,6.83
2018-08-07T19:47:17.825Z,7.00
2018-08-07T19:52:20.033Z,7.63
2018-08-07T19:57:22.217Z,6.20
2018-08-07T20:02:24.478Z,6.30
2018-08-07T20:07:26.691Z,6.40
2018-08-07T20:12:28.866Z,6.90
2018-08-07T20:17:31.109Z,7.90
2018-08-07T20:22:33.267Z,9.07
2018-08-07T20:27:35.505Z,8.27
2018-08-07T20:32:37.879Z,8.13
2018-08-07T20:37:40.074Z,9.00
2018-08-07T20:42:42.470Z,8.23
2018-08-07T20:47:44.629Z,10.03
2018-08-07T20:52:47.050Z,7.80
2018-08-07T20:57:49.242Z,10.90
2018-08-07T21:02:51.422Z,11.33
2018-08-07T21:07:53.617Z,7.53
2018-08-07T21:12:55.999Z,6.43
2018-08-07T21:17:58.154Z,10.53
2018-08-07T21:23:00.310Z,6.63
2018-08-07T21:28:02.466Z,10.10
2018-08-07T21:33:04.634Z,9.30
2018-08-07T21:38:06.782Z,10.40
2018-08-07T21:43:08.917Z,7.80
2018-08-07T21:48:11.065Z,10.30
2018-08-07T21:53:13.193Z,9.20
2018-08-07T21:58:15.405Z,7.27
2018-08-07T22:03:17.693Z,8.30
2018-08-07T22:08:19.873Z,9.03
2018-08-07T22:13:22.002Z,8.80
2018-08-07T22:18:24.169Z,8.17
2018-08-07T22:23:26.353Z,10.40
2018-08-07T22:28:28.505Z,9.83
2018-08-07T22:33:30.657Z,11.60
2018-08-07T22:38:32.799Z,7.90
2018-08-07T22:43:34.952Z,8.77
2018-08-07T22:48:37.077Z,10.53
2018-08-07T22:53:39.240Z,11.20
2018-08-07T22:58:41.401Z,9.67
2018-08-07T23:03:43.596Z,12.00
2018-08-07T23:08:45.778Z,9.13
2018-08-07T23:13:47.941Z,12.90
2018-08-07T23:18:50.093Z,11.23
2018-08-07T23:23:52.244Z,14.80
2018-08-07T23:28:54.389Z,12.63
2018-08-07T23:33:56.540Z,9.80
2018-08-07T23:38:58.714Z,7.80
2018-08-07T23:44:00.859Z,6.50
2018-08-07T23:49:03.038Z,9.47
2018-08-07T23:54:05.492Z,7.93
2018-08-07T23:59:07.625Z,10.53
